sensor_id;sensor_type;location;lat;lon;timestamp;P1;durP1;ratioP1;P2;durP2;ratioP2
79027;SDS011;68427;48.476;19.102;2023-06-26T00:00:13;9.20;;;5.90;;
79027;SDS011;68427;48.476;19.102;2023-06-26T00:05:05;8.45;;;5.50;;
79027;SDS011;68427;48.476;19.102;2023-06-26T00:07:33;7.57;;;5.80;;
79027;SDS011;68427;48.476;19.102;2023-06-26T00:10:01;8.13;;;6.32;;
79027;SDS011;68427;48.476;19.102;2023-06-26T00:12:27;7.57;;;6.57;;
79027;SDS011;68427;48.476;19.102;2023-06-26T00:14:53;9.75;;;5.20;;
79027;SDS011;68427;48.476;19.102;2023-06-26T00:17:19;8.77;;;7.20;;
79027;SDS011;68427;48.476;19.102;2023-06-26T00:19:44;8.20;;;5.75;;
79027;SDS011;68427;48.476;19.102;2023-06-26T00:22:10;7.57;;;6.53;;
79027;SDS011;68427;48.476;19.102;2023-06-26T00:24:38;9.13;;;6.30;;
79027;SDS011;68427;48.476;19.102;2023-06-26T00:27:04;10.18;;;6.00;;
79027;SDS011;68427;48.476;19.102;2023-06-26T00:29:29;8.68;;;5.85;;
79027;SDS011;68427;48.476;19.102;2023-06-26T00:31:55;8.00;;;5.93;;
79027;SDS011;68427;48.476;19.102;2023-06-26T00:34:21;8.60;;;6.55;;
79027;SDS011;68427;48.476;19.102;2023-06-26T00:36:46;8.70;;;5.57;;
79027;SDS011;68427;48.476;19.102;2023-06-26T00:39:12;9.88;;;5.35;;
79027;SDS011;68427;48.476;19.102;2023-06-26T00:41:40;7.28;;;5.63;;
79027;SDS011;68427;48.476;19.102;2023-06-26T00:44:05;9.10;;;6.85;;
79027;SDS011;68427;48.476;19.102;2023-06-26T00:46:31;7.57;;;5.82;;
79027;SDS011;68427;48.476;19.102;2023-06-26T00:48:58;8.23;;;6.13;;
79027;SDS011;68427;48.476;19.102;2023-06-26T00:51:25;8.27;;;5.40;;
79027;SDS011;68427;48.476;19.102;2023-06-26T00:53:50;7.40;;;5.13;;
79027;SDS011;68427;48.476;19.102;2023-06-26T00:56:17;9.95;;;5.30;;
79027;SDS011;68427;48.476;19.102;2023-06-26T00:58:45;8.48;;;5.82;;
79027;SDS011;68427;48.476;19.102;2023-06-26T01:03:41;9.65;;;5.40;;
79027;SDS011;68427;48.476;19.102;2023-06-26T01:06:07;9.43;;;5.97;;
79027;SDS011;68427;48.476;19.102;2023-06-26T01:08:36;7.53;;;4.97;;
79027;SDS011;68427;48.476;19.102;2023-06-26T01:11:02;6.32;;;4.90;;
79027;SDS011;68427;48.476;19.102;2023-06-26T01:13:28;6.88;;;5.05;;
79027;SDS011;68427;48.476;19.102;2023-06-26T01:15:56;6.63;;;4.85;;
79027;SDS011;68427;48.476;19.102;2023-06-26T01:18:23;8.38;;;6.43;;
79027;SDS011;68427;48.476;19.102;2023-06-26T01:20:50;8.60;;;5.93;;
79027;SDS011;68427;48.476;19.102;2023-06-26T01:23:17;7.72;;;5.70;;
79027;SDS011;68427;48.476;19.102;2023-06-26T01:25:51;8.25;;;5.72;;
79027;SDS011;68427;48.476;19.102;2023-06-26T01:28:28;8.25;;;5.25;;
79027;SDS011;68427;48.476;19.102;2023-06-26T01:30:55;8.27;;;6.13;;
79027;SDS011;68427;48.476;19.102;2023-06-26T01:33:21;7.88;;;5.97;;
79027;SDS011;68427;48.476;19.102;2023-06-26T01:35:47;7.28;;;5.53;;
79027;SDS011;68427;48.476;19.102;2023-06-26T01:38:13;9.48;;;5.47;;
79027;SDS011;68427;48.476;19.102;2023-06-26T01:40:42;7.75;;;5.43;;
79027;SDS011;68427;48.476;19.102;2023-06-26T01:43:09;7.47;;;6.25;;
79027;SDS011;68427;48.476;19.102;2023-06-26T01:45:42;7.15;;;4.85;;
79027;SDS011;68427;48.476;19.102;2023-06-26T01:48:09;8.65;;;7.18;;
79027;SDS011;68427;48.476;19.102;2023-06-26T01:50:38;9.77;;;5.13;;
79027;SDS011;68427;48.476;19.102;2023-06-26T01:53:07;8.90;;;5.78;;
79027;SDS011;68427;48.476;19.102;2023-06-26T01:55:38;8.05;;;5.47;;
79027;SDS011;68427;48.476;19.102;2023-06-26T01:58:09;7.25;;;4.93;;
79027;SDS011;68427;48.476;19.102;2023-06-26T02:00:35;6.78;;;4.75;;
79027;SDS011;68427;48.476;19.102;2023-06-26T02:03:03;8.40;;;7.00;;
79027;SDS011;68427;48.476;19.102;2023-06-26T02:05:30;8.75;;;5.53;;
79027;SDS011;68427;48.476;19.102;2023-06-26T02:07:58;7.28;;;5.68;;
79027;SDS011;68427;48.476;19.102;2023-06-26T02:10:26;8.13;;;5.72;;
79027;SDS011;68427;48.476;19.102;2023-06-26T02:12:52;8.30;;;4.35;;
79027;SDS011;68427;48.476;19.102;2023-06-26T02:15:17;9.27;;;6.20;;
79027;SDS011;68427;48.476;19.102;2023-06-26T02:17:43;7.88;;;6.10;;
79027;SDS011;68427;48.476;19.102;2023-06-26T02:20:14;8.32;;;6.25;;
79027;SDS011;68427;48.476;19.102;2023-06-26T02:25:06;8.85;;;5.22;;
79027;SDS011;68427;48.476;19.102;2023-06-26T02:27:32;9.13;;;5.00;;
79027;SDS011;68427;48.476;19.102;2023-06-26T02:29:58;7.97;;;5.68;;
79027;SDS011;68427;48.476;19.102;2023-06-26T02:32:23;7.53;;;5.75;;
79027;SDS011;68427;48.476;19.102;2023-06-26T02:34:49;6.80;;;4.28;;
79027;SDS011;68427;48.476;19.102;2023-06-26T02:39:43;7.47;;;5.47;;
79027;SDS011;68427;48.476;19.102;2023-06-26T02:42:09;8.93;;;5.38;;
79027;SDS011;68427;48.476;19.102;2023-06-26T02:44:35;7.68;;;5.68;;
79027;SDS011;68427;48.476;19.102;2023-06-26T02:47:00;7.25;;;5.35;;
79027;SDS011;68427;48.476;19.102;2023-06-26T02:49:26;8.10;;;6.00;;
79027;SDS011;68427;48.476;19.102;2023-06-26T02:51:53;7.35;;;6.10;;
79027;SDS011;68427;48.476;19.102;2023-06-26T02:54:20;8.20;;;5.63;;
79027;SDS011;68427;48.476;19.102;2023-06-26T02:56:45;6.10;;;4.93;;
79027;SDS011;68427;48.476;19.102;2023-06-26T02:59:11;7.63;;;5.75;;
79027;SDS011;68427;48.476;19.102;2023-06-26T03:01:37;7.95;;;5.20;;
79027;SDS011;68427;48.476;19.102;2023-06-26T03:04:03;8.40;;;6.80;;
79027;SDS011;68427;48.476;19.102;2023-06-26T03:06:29;8.02;;;5.18;;
79027;SDS011;68427;48.476;19.102;2023-06-26T03:08:55;7.65;;;6.20;;
79027;SDS011;68427;48.476;19.102;2023-06-26T03:11:22;8.77;;;6.13;;
79027;SDS011;68427;48.476;19.102;2023-06-26T03:13:48;7.38;;;5.47;;
79027;SDS011;68427;48.476;19.102;2023-06-26T03:16:13;11.00;;;5.40;;
79027;SDS011;68427;48.476;19.102;2023-06-26T03:18:39;7.80;;;5.32;;
79027;SDS011;68427;48.476;19.102;2023-06-26T03:21:05;8.95;;;5.63;;
79027;SDS011;68427;48.476;19.102;2023-06-26T03:23:30;7.95;;;4.65;;
79027;SDS011;68427;48.476;19.102;2023-06-26T03:25:56;7.97;;;5.88;;
79027;SDS011;68427;48.476;19.102;2023-06-26T03:28:23;7.53;;;5.07;;
79027;SDS011;68427;48.476;19.102;2023-06-26T03:30:48;6.85;;;5.07;;
79027;SDS011;68427;48.476;19.102;2023-06-26T03:33:14;6.65;;;5.93;;
79027;SDS011;68427;48.476;19.102;2023-06-26T03:35:40;9.93;;;5.32;;
79027;SDS011;68427;48.476;19.102;2023-06-26T03:38:05;9.40;;;6.30;;
79027;SDS011;68427;48.476;19.102;2023-06-26T03:40:31;7.47;;;6.05;;
79027;SDS011;68427;48.476;19.102;2023-06-26T03:42:57;12.25;;;5.88;;
79027;SDS011;68427;48.476;19.102;2023-06-26T03:45:24;8.98;;;7.10;;
79027;SDS011;68427;48.476;19.102;2023-06-26T03:47:50;8.23;;;5.55;;
79027;SDS011;68427;48.476;19.102;2023-06-26T03:50:15;8.77;;;4.95;;
79027;SDS011;68427;48.476;19.102;2023-06-26T03:52:41;8.98;;;7.00;;
79027;SDS011;68427;48.476;19.102;2023-06-26T03:55:07;7.97;;;5.15;;
79027;SDS011;68427;48.476;19.102;2023-06-26T03:57:33;7.93;;;6.38;;
79027;SDS011;68427;48.476;19.102;2023-06-26T03:59:59;7.20;;;5.60;;
79027;SDS011;68427;48.476;19.102;2023-06-26T04:02:26;8.52;;;5.68;;
79027;SDS011;68427;48.476;19.102;2023-06-26T04:04:52;7.45;;;5.68;;
79027;SDS011;68427;48.476;19.102;2023-06-26T04:07:17;8.63;;;6.38;;
79027;SDS011;68427;48.476;19.102;2023-06-26T04:09:43;10.23;;;6.63;;
79027;SDS011;68427;48.476;19.102;2023-06-26T04:12:09;8.45;;;6.25;;
79027;SDS011;68427;48.476;19.102;2023-06-26T04:14:35;9.23;;;6.07;;
79027;SDS011;68427;48.476;19.102;2023-06-26T04:17:00;7.60;;;5.57;;
79027;SDS011;68427;48.476;19.102;2023-06-26T04:19:30;9.10;;;6.68;;
79027;SDS011;68427;48.476;19.102;2023-06-26T04:21:56;9.05;;;6.38;;
79027;SDS011;68427;48.476;19.102;2023-06-26T04:24:22;9.18;;;6.07;;
79027;SDS011;68427;48.476;19.102;2023-06-26T04:26:48;9.90;;;6.10;;
79027;SDS011;68427;48.476;19.102;2023-06-26T04:29:14;9.10;;;6.28;;
79027;SDS011;68427;48.476;19.102;2023-06-26T04:31:40;8.27;;;6.75;;
79027;SDS011;68427;48.476;19.102;2023-06-26T04:34:05;8.85;;;6.03;;
79027;SDS011;68427;48.476;19.102;2023-06-26T04:36:32;9.10;;;5.65;;
79027;SDS011;68427;48.476;19.102;2023-06-26T04:38:58;9.32;;;5.72;;
79027;SDS011;68427;48.476;19.102;2023-06-26T04:41:24;8.73;;;6.38;;
79027;SDS011;68427;48.476;19.102;2023-06-26T04:43:49;9.95;;;6.20;;
79027;SDS011;68427;48.476;19.102;2023-06-26T04:46:15;9.95;;;6.15;;
79027;SDS011;68427;48.476;19.102;2023-06-26T04:48:41;8.65;;;6.05;;
79027;SDS011;68427;48.476;19.102;2023-06-26T04:51:06;8.23;;;6.18;;
79027;SDS011;68427;48.476;19.102;2023-06-26T04:53:33;8.27;;;5.57;;
79027;SDS011;68427;48.476;19.102;2023-06-26T04:55:59;8.57;;;5.25;;
79027;SDS011;68427;48.476;19.102;2023-06-26T04:58:25;10.20;;;6.47;;
79027;SDS011;68427;48.476;19.102;2023-06-26T05:00:50;8.00;;;5.47;;
79027;SDS011;68427;48.476;19.102;2023-06-26T05:03:16;9.27;;;5.38;;
79027;SDS011;68427;48.476;19.102;2023-06-26T05:05:43;10.88;;;5.05;;
79027;SDS011;68427;48.476;19.102;2023-06-26T05:08:15;9.38;;;5.65;;
79027;SDS011;68427;48.476;19.102;2023-06-26T05:10:43;8.73;;;6.10;;
79027;SDS011;68427;48.476;19.102;2023-06-26T05:13:09;8.13;;;6.03;;
79027;SDS011;68427;48.476;19.102;2023-06-26T05:15:35;8.93;;;5.65;;
79027;SDS011;68427;48.476;19.102;2023-06-26T05:18:01;8.20;;;5.65;;
79027;SDS011;68427;48.476;19.102;2023-06-26T05:20:26;9.90;;;5.55;;
79027;SDS011;68427;48.476;19.102;2023-06-26T05:22:52;7.90;;;5.00;;
79027;SDS011;68427;48.476;19.102;2023-06-26T05:25:19;7.80;;;5.50;;
79027;SDS011;68427;48.476;19.102;2023-06-26T05:27:50;9.13;;;6.72;;
79027;SDS011;68427;48.476;19.102;2023-06-26T05:30:17;6.85;;;5.40;;
79027;SDS011;68427;48.476;19.102;2023-06-26T05:32:44;8.02;;;5.80;;
79027;SDS011;68427;48.476;19.102;2023-06-26T05:35:13;6.75;;;5.53;;
79027;SDS011;68427;48.476;19.102;2023-06-26T05:37:40;8.75;;;4.88;;
79027;SDS011;68427;48.476;19.102;2023-06-26T05:40:07;8.10;;;4.97;;
79027;SDS011;68427;48.476;19.102;2023-06-26T05:42:34;8.57;;;5.00;;
79027;SDS011;68427;48.476;19.102;2023-06-26T05:45:01;7.53;;;4.60;;
79027;SDS011;68427;48.476;19.102;2023-06-26T05:47:27;9.50;;;5.32;;
79027;SDS011;68427;48.476;19.102;2023-06-26T05:49:53;7.30;;;4.65;;
79027;SDS011;68427;48.476;19.102;2023-06-26T05:52:19;7.78;;;6.97;;
79027;SDS011;68427;48.476;19.102;2023-06-26T05:54:45;7.55;;;5.30;;
79027;SDS011;68427;48.476;19.102;2023-06-26T05:57:12;8.55;;;5.30;;
79027;SDS011;68427;48.476;19.102;2023-06-26T05:59:39;8.05;;;5.40;;
79027;SDS011;68427;48.476;19.102;2023-06-26T06:02:08;6.80;;;3.92;;
79027;SDS011;68427;48.476;19.102;2023-06-26T06:04:33;7.35;;;5.57;;
79027;SDS011;68427;48.476;19.102;2023-06-26T06:07:00;8.20;;;5.15;;
79027;SDS011;68427;48.476;19.102;2023-06-26T06:09:25;6.43;;;4.60;;
79027;SDS011;68427;48.476;19.102;2023-06-26T06:11:51;7.63;;;5.38;;
79027;SDS011;68427;48.476;19.102;2023-06-26T06:14:17;7.03;;;5.22;;
79027;SDS011;68427;48.476;19.102;2023-06-26T06:16:42;6.85;;;4.50;;
79027;SDS011;68427;48.476;19.102;2023-06-26T06:19:09;7.70;;;4.47;;
79027;SDS011;68427;48.476;19.102;2023-06-26T06:21:38;6.55;;;5.20;;
79027;SDS011;68427;48.476;19.102;2023-06-26T06:24:04;8.35;;;5.43;;
79027;SDS011;68427;48.476;19.102;2023-06-26T06:26:31;9.60;;;4.82;;
79027;SDS011;68427;48.476;19.102;2023-06-26T06:28:57;6.68;;;4.38;;
79027;SDS011;68427;48.476;19.102;2023-06-26T06:31:23;6.65;;;5.38;;
79027;SDS011;68427;48.476;19.102;2023-06-26T06:33:48;5.72;;;4.20;;
79027;SDS011;68427;48.476;19.102;2023-06-26T06:36:15;7.25;;;4.70;;
79027;SDS011;68427;48.476;19.102;2023-06-26T06:38:42;7.47;;;4.75;;
79027;SDS011;68427;48.476;19.102;2023-06-26T06:43:34;6.10;;;4.72;;
79027;SDS011;68427;48.476;19.102;2023-06-26T06:45:59;8.50;;;5.22;;
79027;SDS011;68427;48.476;19.102;2023-06-26T06:48:25;7.00;;;4.20;;
79027;SDS011;68427;48.476;19.102;2023-06-26T06:50:50;6.65;;;4.03;;
79027;SDS011;68427;48.476;19.102;2023-06-26T06:53:18;8.10;;;5.30;;
79027;SDS011;68427;48.476;19.102;2023-06-26T06:55:46;5.97;;;4.38;;
79027;SDS011;68427;48.476;19.102;2023-06-26T06:58:12;7.07;;;3.95;;
79027;SDS011;68427;48.476;19.102;2023-06-26T07:00:38;5.25;;;3.55;;
79027;SDS011;68427;48.476;19.102;2023-06-26T07:03:03;6.15;;;4.47;;
79027;SDS011;68427;48.476;19.102;2023-06-26T07:05:29;6.80;;;3.38;;
79027;SDS011;68427;48.476;19.102;2023-06-26T07:07:55;10.30;;;3.72;;
79027;SDS011;68427;48.476;19.102;2023-06-26T07:10:22;7.65;;;3.65;;
79027;SDS011;68427;48.476;19.102;2023-06-26T07:12:47;5.90;;;4.13;;
79027;SDS011;68427;48.476;19.102;2023-06-26T07:15:13;5.43;;;3.05;;
79027;SDS011;68427;48.476;19.102;2023-06-26T07:17:39;6.20;;;3.20;;
79027;SDS011;68427;48.476;19.102;2023-06-26T07:20:05;7.00;;;3.67;;
79027;SDS011;68427;48.476;19.102;2023-06-26T07:22:35;4.68;;;3.53;;
79027;SDS011;68427;48.476;19.102;2023-06-26T07:25:01;5.63;;;4.13;;
79027;SDS011;68427;48.476;19.102;2023-06-26T07:27:28;5.95;;;3.80;;
79027;SDS011;68427;48.476;19.102;2023-06-26T07:32:19;6.55;;;4.80;;
79027;SDS011;68427;48.476;19.102;2023-06-26T07:34:45;8.93;;;4.25;;
79027;SDS011;68427;48.476;19.102;2023-06-26T07:37:10;7.55;;;4.15;;
79027;SDS011;68427;48.476;19.102;2023-06-26T07:39:36;14.00;;;5.90;;
79027;SDS011;68427;48.476;19.102;2023-06-26T07:42:02;6.28;;;4.47;;
79027;SDS011;68427;48.476;19.102;2023-06-26T07:44:29;10.25;;;4.38;;
79027;SDS011;68427;48.476;19.102;2023-06-26T07:49:20;5.60;;;3.88;;
79027;SDS011;68427;48.476;19.102;2023-06-26T07:51:46;7.35;;;3.80;;
79027;SDS011;68427;48.476;19.102;2023-06-26T07:54:11;6.07;;;3.38;;
79027;SDS011;68427;48.476;19.102;2023-06-26T07:56:52;6.18;;;3.22;;
79027;SDS011;68427;48.476;19.102;2023-06-26T07:59:21;4.63;;;3.15;;
79027;SDS011;68427;48.476;19.102;2023-06-26T08:01:49;6.55;;;2.90;;
79027;SDS011;68427;48.476;19.102;2023-06-26T08:04:17;4.20;;;2.83;;
79027;SDS011;68427;48.476;19.102;2023-06-26T08:06:43;5.13;;;3.08;;
79027;SDS011;68427;48.476;19.102;2023-06-26T08:09:09;6.43;;;4.93;;
79027;SDS011;68427;48.476;19.102;2023-06-26T08:11:35;4.35;;;2.92;;
79027;SDS011;68427;48.476;19.102;2023-06-26T08:14:01;7.05;;;3.55;;
79027;SDS011;68427;48.476;19.102;2023-06-26T08:16:26;4.90;;;3.08;;
79027;SDS011;68427;48.476;19.102;2023-06-26T08:18:53;4.75;;;3.28;;
79027;SDS011;68427;48.476;19.102;2023-06-26T08:21:19;4.90;;;3.13;;
79027;SDS011;68427;48.476;19.102;2023-06-26T08:23:45;5.43;;;3.88;;
79027;SDS011;68427;48.476;19.102;2023-06-26T08:26:10;4.28;;;3.05;;
79027;SDS011;68427;48.476;19.102;2023-06-26T08:28:36;3.65;;;2.28;;
79027;SDS011;68427;48.476;19.102;2023-06-26T08:31:01;5.05;;;3.05;;
79027;SDS011;68427;48.476;19.102;2023-06-26T08:33:27;6.32;;;2.83;;
79027;SDS011;68427;48.476;19.102;2023-06-26T08:35:55;7.70;;;3.45;;
79027;SDS011;68427;48.476;19.102;2023-06-26T08:38:21;5.10;;;3.13;;
79027;SDS011;68427;48.476;19.102;2023-06-26T08:40:46;5.93;;;3.90;;
79027;SDS011;68427;48.476;19.102;2023-06-26T08:43:12;5.60;;;2.75;;
79027;SDS011;68427;48.476;19.102;2023-06-26T08:45:38;4.97;;;3.25;;
79027;SDS011;68427;48.476;19.102;2023-06-26T08:48:07;5.10;;;3.85;;
79027;SDS011;68427;48.476;19.102;2023-06-26T08:50:33;4.43;;;3.30;;
79027;SDS011;68427;48.476;19.102;2023-06-26T08:55:29;5.05;;;4.07;;
79027;SDS011;68427;48.476;19.102;2023-06-26T08:57:58;5.43;;;3.33;;
79027;SDS011;68427;48.476;19.102;2023-06-26T09:00:24;4.93;;;3.33;;
79027;SDS011;68427;48.476;19.102;2023-06-26T09:02:50;5.18;;;3.22;;
79027;SDS011;68427;48.476;19.102;2023-06-26T09:05:16;4.25;;;3.17;;
79027;SDS011;68427;48.476;19.102;2023-06-26T09:07:42;4.85;;;3.53;;
79027;SDS011;68427;48.476;19.102;2023-06-26T09:10:09;5.93;;;3.80;;
79027;SDS011;68427;48.476;19.102;2023-06-26T09:12:36;5.57;;;3.58;;
79027;SDS011;68427;48.476;19.102;2023-06-26T09:15:02;5.70;;;3.35;;
79027;SDS011;68427;48.476;19.102;2023-06-26T09:17:29;4.72;;;3.55;;
79027;SDS011;68427;48.476;19.102;2023-06-26T09:19:56;4.97;;;3.92;;
79027;SDS011;68427;48.476;19.102;2023-06-26T09:22:23;5.28;;;3.72;;
79027;SDS011;68427;48.476;19.102;2023-06-26T09:24:49;5.05;;;4.15;;
79027;SDS011;68427;48.476;19.102;2023-06-26T09:27:17;5.30;;;3.85;;
79027;SDS011;68427;48.476;19.102;2023-06-26T09:29:44;6.22;;;3.35;;
79027;SDS011;68427;48.476;19.102;2023-06-26T09:32:12;4.07;;;3.28;;
79027;SDS011;68427;48.476;19.102;2023-06-26T09:34:40;5.57;;;3.90;;
79027;SDS011;68427;48.476;19.102;2023-06-26T09:37:08;4.90;;;3.33;;
79027;SDS011;68427;48.476;19.102;2023-06-26T09:39:37;6.15;;;3.47;;
79027;SDS011;68427;48.476;19.102;2023-06-26T09:42:03;5.43;;;3.53;;
79027;SDS011;68427;48.476;19.102;2023-06-26T09:44:33;5.35;;;3.75;;
79027;SDS011;68427;48.476;19.102;2023-06-26T09:46:59;5.03;;;4.30;;
79027;SDS011;68427;48.476;19.102;2023-06-26T09:49:28;6.03;;;3.88;;
79027;SDS011;68427;48.476;19.102;2023-06-26T09:51:53;5.50;;;3.72;;
79027;SDS011;68427;48.476;19.102;2023-06-26T09:54:20;6.53;;;4.13;;
79027;SDS011;68427;48.476;19.102;2023-06-26T09:56:46;4.75;;;3.38;;
79027;SDS011;68427;48.476;19.102;2023-06-26T09:59:12;6.78;;;3.63;;
79027;SDS011;68427;48.476;19.102;2023-06-26T10:01:41;5.05;;;3.17;;
79027;SDS011;68427;48.476;19.102;2023-06-26T10:04:10;7.60;;;3.70;;
79027;SDS011;68427;48.476;19.102;2023-06-26T10:06:36;6.25;;;3.55;;
79027;SDS011;68427;48.476;19.102;2023-06-26T10:09:04;5.72;;;3.67;;
79027;SDS011;68427;48.476;19.102;2023-06-26T10:11:32;6.30;;;4.05;;
79027;SDS011;68427;48.476;19.102;2023-06-26T10:14:02;6.53;;;3.67;;
79027;SDS011;68427;48.476;19.102;2023-06-26T10:16:30;5.00;;;3.83;;
79027;SDS011;68427;48.476;19.102;2023-06-26T10:19:01;6.55;;;3.85;;
79027;SDS011;68427;48.476;19.102;2023-06-26T10:21:28;5.97;;;3.72;;
79027;SDS011;68427;48.476;19.102;2023-06-26T10:23:54;4.22;;;3.20;;
79027;SDS011;68427;48.476;19.102;2023-06-26T10:26:21;6.32;;;4.35;;
79027;SDS011;68427;48.476;19.102;2023-06-26T10:28:50;6.40;;;4.10;;
79027;SDS011;68427;48.476;19.102;2023-06-26T10:31:18;4.68;;;3.33;;
79027;SDS011;68427;48.476;19.102;2023-06-26T10:33:46;4.32;;;3.67;;
79027;SDS011;68427;48.476;19.102;2023-06-26T10:36:14;6.32;;;3.85;;
79027;SDS011;68427;48.476;19.102;2023-06-26T10:38:50;6.00;;;4.10;;
79027;SDS011;68427;48.476;19.102;2023-06-26T10:41:19;6.95;;;3.75;;
79027;SDS011;68427;48.476;19.102;2023-06-26T10:43:48;7.35;;;3.85;;
79027;SDS011;68427;48.476;19.102;2023-06-26T10:46:15;5.68;;;3.78;;
79027;SDS011;68427;48.476;19.102;2023-06-26T10:48:55;5.57;;;3.83;;
79027;SDS011;68427;48.476;19.102;2023-06-26T10:51:25;10.68;;;4.75;;
79027;SDS011;68427;48.476;19.102;2023-06-26T10:53:53;7.10;;;3.25;;
79027;SDS011;68427;48.476;19.102;2023-06-26T10:56:21;5.47;;;3.65;;
79027;SDS011;68427;48.476;19.102;2023-06-26T10:59:11;6.95;;;4.28;;
79027;SDS011;68427;48.476;19.102;2023-06-26T11:01:40;4.95;;;3.35;;
79027;SDS011;68427;48.476;19.102;2023-06-26T11:04:08;5.28;;;3.17;;
79027;SDS011;68427;48.476;19.102;2023-06-26T11:06:37;11.35;;;5.07;;
79027;SDS011;68427;48.476;19.102;2023-06-26T11:09:07;10.55;;;4.68;;
79027;SDS011;68427;48.476;19.102;2023-06-26T11:14:24;27.67;;;10.68;;
79027;SDS011;68427;48.476;19.102;2023-06-26T11:16:51;6.38;;;3.38;;
79027;SDS011;68427;48.476;19.102;2023-06-26T11:19:18;8.18;;;4.07;;
79027;SDS011;68427;48.476;19.102;2023-06-26T11:21:46;6.03;;;3.58;;
79027;SDS011;68427;48.476;19.102;2023-06-26T11:24:12;6.13;;;3.70;;
79027;SDS011;68427;48.476;19.102;2023-06-26T11:26:39;5.78;;;3.70;;
79027;SDS011;68427;48.476;19.102;2023-06-26T11:29:05;4.95;;;3.53;;
79027;SDS011;68427;48.476;19.102;2023-06-26T11:31:31;6.28;;;4.10;;
79027;SDS011;68427;48.476;19.102;2023-06-26T11:33:58;5.07;;;3.33;;
79027;SDS011;68427;48.476;19.102;2023-06-26T11:36:25;7.20;;;4.50;;
79027;SDS011;68427;48.476;19.102;2023-06-26T11:38:56;6.53;;;3.47;;
79027;SDS011;68427;48.476;19.102;2023-06-26T11:41:23;5.00;;;3.90;;
79027;SDS011;68427;48.476;19.102;2023-06-26T11:43:50;5.53;;;3.50;;
79027;SDS011;68427;48.476;19.102;2023-06-26T11:46:17;5.00;;;3.20;;
79027;SDS011;68427;48.476;19.102;2023-06-26T11:48:43;7.28;;;4.20;;
79027;SDS011;68427;48.476;19.102;2023-06-26T11:51:09;5.10;;;3.17;;
79027;SDS011;68427;48.476;19.102;2023-06-26T11:53:38;4.35;;;3.70;;
79027;SDS011;68427;48.476;19.102;2023-06-26T11:56:09;5.03;;;3.85;;
79027;SDS011;68427;48.476;19.102;2023-06-26T11:58:35;5.47;;;4.32;;
79027;SDS011;68427;48.476;19.102;2023-06-26T12:01:01;4.55;;;3.20;;
79027;SDS011;68427;48.476;19.102;2023-06-26T12:03:27;5.72;;;4.13;;
79027;SDS011;68427;48.476;19.102;2023-06-26T12:05:54;5.70;;;4.03;;
79027;SDS011;68427;48.476;19.102;2023-06-26T12:08:20;5.40;;;3.38;;
79027;SDS011;68427;48.476;19.102;2023-06-26T12:10:46;4.30;;;3.38;;
79027;SDS011;68427;48.476;19.102;2023-06-26T12:13:14;5.40;;;3.50;;
79027;SDS011;68427;48.476;19.102;2023-06-26T12:15:39;6.45;;;4.05;;
79027;SDS011;68427;48.476;19.102;2023-06-26T12:18:07;4.72;;;3.60;;
79027;SDS011;68427;48.476;19.102;2023-06-26T12:20:34;5.18;;;3.28;;
79027;SDS011;68427;48.476;19.102;2023-06-26T12:23:11;5.70;;;3.45;;
79027;SDS011;68427;48.476;19.102;2023-06-26T12:25:37;6.22;;;3.53;;
79027;SDS011;68427;48.476;19.102;2023-06-26T12:28:03;5.95;;;3.88;;
79027;SDS011;68427;48.476;19.102;2023-06-26T12:30:41;4.82;;;3.78;;
79027;SDS011;68427;48.476;19.102;2023-06-26T12:33:12;7.25;;;3.60;;
79027;SDS011;68427;48.476;19.102;2023-06-26T12:35:39;4.78;;;3.60;;
79027;SDS011;68427;48.476;19.102;2023-06-26T12:38:06;4.60;;;3.13;;
79027;SDS011;68427;48.476;19.102;2023-06-26T12:40:34;5.22;;;3.45;;
79027;SDS011;68427;48.476;19.102;2023-06-26T12:43:00;4.68;;;3.63;;
79027;SDS011;68427;48.476;19.102;2023-06-26T12:45:27;5.90;;;3.75;;
79027;SDS011;68427;48.476;19.102;2023-06-26T12:48:11;5.50;;;3.67;;
79027;SDS011;68427;48.476;19.102;2023-06-26T12:50:38;4.90;;;3.72;;
79027;SDS011;68427;48.476;19.102;2023-06-26T12:53:08;5.82;;;3.67;;
79027;SDS011;68427;48.476;19.102;2023-06-26T12:55:34;4.47;;;3.45;;
79027;SDS011;68427;48.476;19.102;2023-06-26T12:58:01;4.95;;;3.22;;
79027;SDS011;68427;48.476;19.102;2023-06-26T13:00:27;4.47;;;3.13;;
79027;SDS011;68427;48.476;19.102;2023-06-26T13:02:52;5.30;;;3.53;;
79027;SDS011;68427;48.476;19.102;2023-06-26T13:05:20;5.07;;;3.20;;
79027;SDS011;68427;48.476;19.102;2023-06-26T13:07:45;6.53;;;3.42;;
79027;SDS011;68427;48.476;19.102;2023-06-26T13:10:11;5.40;;;3.30;;
79027;SDS011;68427;48.476;19.102;2023-06-26T13:12:37;5.07;;;3.38;;
79027;SDS011;68427;48.476;19.102;2023-06-26T13:15:03;5.22;;;4.03;;
79027;SDS011;68427;48.476;19.102;2023-06-26T13:17:30;5.50;;;4.47;;
79027;SDS011;68427;48.476;19.102;2023-06-26T13:19:55;5.60;;;3.78;;
79027;SDS011;68427;48.476;19.102;2023-06-26T13:22:23;5.18;;;3.95;;
79027;SDS011;68427;48.476;19.102;2023-06-26T13:24:48;5.90;;;3.35;;
79027;SDS011;68427;48.476;19.102;2023-06-26T13:27:23;4.88;;;3.60;;
79027;SDS011;68427;48.476;19.102;2023-06-26T13:29:49;5.38;;;3.70;;
79027;SDS011;68427;48.476;19.102;2023-06-26T13:32:15;7.68;;;4.05;;
79027;SDS011;68427;48.476;19.102;2023-06-26T13:34:40;4.13;;;3.33;;
79027;SDS011;68427;48.476;19.102;2023-06-26T13:37:06;5.65;;;4.20;;
79027;SDS011;68427;48.476;19.102;2023-06-26T13:39:33;6.97;;;3.90;;
79027;SDS011;68427;48.476;19.102;2023-06-26T13:41:59;5.63;;;3.25;;
79027;SDS011;68427;48.476;19.102;2023-06-26T13:44:25;6.45;;;3.78;;
79027;SDS011;68427;48.476;19.102;2023-06-26T13:46:51;4.68;;;3.50;;
79027;SDS011;68427;48.476;19.102;2023-06-26T13:49:17;5.47;;;3.60;;
79027;SDS011;68427;48.476;19.102;2023-06-26T13:51:42;5.10;;;3.58;;
79027;SDS011;68427;48.476;19.102;2023-06-26T13:54:12;6.93;;;3.75;;
79027;SDS011;68427;48.476;19.102;2023-06-26T13:56:39;5.30;;;3.63;;
79027;SDS011;68427;48.476;19.102;2023-06-26T13:59:04;4.85;;;3.00;;
79027;SDS011;68427;48.476;19.102;2023-06-26T14:01:30;4.28;;;3.20;;
79027;SDS011;68427;48.476;19.102;2023-06-26T14:03:56;6.40;;;3.85;;
79027;SDS011;68427;48.476;19.102;2023-06-26T14:06:22;5.20;;;3.47;;
79027;SDS011;68427;48.476;19.102;2023-06-26T14:08:48;6.40;;;3.97;;
79027;SDS011;68427;48.476;19.102;2023-06-26T14:11:13;6.38;;;3.58;;
79027;SDS011;68427;48.476;19.102;2023-06-26T14:13:42;4.68;;;3.33;;
79027;SDS011;68427;48.476;19.102;2023-06-26T14:16:08;4.22;;;3.38;;
79027;SDS011;68427;48.476;19.102;2023-06-26T14:18:33;4.93;;;3.10;;
79027;SDS011;68427;48.476;19.102;2023-06-26T14:21:00;4.30;;;3.40;;
79027;SDS011;68427;48.476;19.102;2023-06-26T14:23:28;4.70;;;3.53;;
79027;SDS011;68427;48.476;19.102;2023-06-26T14:25:54;5.43;;;3.20;;
79027;SDS011;68427;48.476;19.102;2023-06-26T14:28:19;8.10;;;3.40;;
79027;SDS011;68427;48.476;19.102;2023-06-26T14:30:47;4.78;;;3.30;;
79027;SDS011;68427;48.476;19.102;2023-06-26T14:33:12;6.28;;;3.53;;
79027;SDS011;68427;48.476;19.102;2023-06-26T14:35:38;4.50;;;3.45;;
79027;SDS011;68427;48.476;19.102;2023-06-26T14:38:04;10.55;;;4.68;;
79027;SDS011;68427;48.476;19.102;2023-06-26T14:40:30;11.95;;;3.70;;
79027;SDS011;68427;48.476;19.102;2023-06-26T14:42:56;6.25;;;3.35;;
79027;SDS011;68427;48.476;19.102;2023-06-26T14:45:21;4.03;;;3.03;;
79027;SDS011;68427;48.476;19.102;2023-06-26T14:47:48;5.78;;;3.65;;
79027;SDS011;68427;48.476;19.102;2023-06-26T14:50:14;4.60;;;3.08;;
79027;SDS011;68427;48.476;19.102;2023-06-26T14:52:40;4.43;;;2.88;;